Time;durP1;ratioP1;P1;durP2;ratioP2;P2;SDS_P1;SDS_P2;PMS_P1;PMS_P2;Temp;Humidity;BMP_temperature;BMP_pressure;BME280_temperature;BME280_humidity;BME280_pressure;Samples;Min_cycle;Max_cycle;Signal;HPM_P1;HPM_P2
2023/01/30 00:00:50;;;;;;;10.67;5.73;;;;;;;-1.77;100.00;100804.31;5045379;28;20264;-76
2023/01/30 00:03:16;;;;;;;8.83;5.57;;;;;;;-1.75;100.00;100797.53;5061749;28;20187;-76
2023/01/30 00:05:43;;;;;;;10.00;6.10;;;;;;;-1.77;100.00;100773.63;5059819;28;20553;-76
2023/01/30 00:08:09;;;;;;;10.33;6.23;;;;;;;-1.76;100.00;100785.59;5047099;28;20203;-76
2023/01/30 00:10:40;;;;;;;8.13;5.50;;;;;;;-1.78;100.00;100766.75;5056481;28;20227;-77
2023/01/30 00:13:07;;;;;;;9.57;6.07;;;;;;;-1.78;100.00;100765.91;5060372;28;20199;-76
2023/01/30 00:15:34;;;;;;;9.97;6.27;;;;;;;-1.78;100.00;100773.56;5059381;28;20192;-77
2023/01/30 00:18:00;;;;;;;8.90;5.80;;;;;;;-1.80;100.00;100770.13;5056282;28;20259;-76
2023/01/30 00:20:28;;;;;;;8.20;5.43;;;;;;;-1.79;100.00;100756.53;5059773;28;20573;-78
2023/01/30 00:22:54;;;;;;;11.43;6.33;;;;;;;-1.80;100.00;100750.53;4969278;28;20228;-77
2023/01/30 00:25:20;;;;;;;10.00;6.50;;;;;;;-1.79;100.00;100761.63;4965813;28;20202;-76
2023/01/30 00:27:46;;;;;;;10.73;6.50;;;;;;;-1.82;100.00;100747.06;4967348;28;20202;-77
2023/01/30 00:30:16;;;;;;;11.37;7.07;;;;;;;-1.83;100.00;100742.81;4960779;28;20225;-77
2023/01/30 00:32:42;;;;;;;11.10;6.93;;;;;;;-1.84;100.00;100735.09;4951167;28;20206;-77
2023/01/30 00:35:09;;;;;;;11.80;6.10;;;;;;;-1.86;100.00;100722.25;4950025;28;20499;-77
2023/01/30 00:37:35;;;;;;;9.87;5.77;;;;;;;-1.88;100.00;100725.59;4934112;28;20730;-77
2023/01/30 00:40:01;;;;;;;10.87;6.00;;;;;;;-1.87;100.00;100730.75;4952292;28;20206;-77
2023/01/30 00:48:23;;;;;;;11.33;6.43;;;;;;;-1.84;100.00;100724.88;4943433;28;20209;-75
2023/01/30 00:50:50;;;;;;;9.53;6.00;;;;;;;-1.84;100.00;100710.38;4942318;28;20235;-76
2023/01/30 00:53:17;;;;;;;11.30;6.50;;;;;;;-1.82;100.00;100705.31;4941888;28;20215;-76
2023/01/30 00:55:44;;;;;;;11.33;6.37;;;;;;;-1.83;100.00;100704.47;4945457;28;20564;-76
2023/01/30 00:58:11;;;;;;;7.83;5.70;;;;;;;-1.83;100.00;100686.56;4927342;28;20216;-77
2023/01/30 01:00:39;;;;;;;11.47;6.00;;;;;;;-1.82;100.00;100680.63;4943264;28;20226;-77
2023/01/30 01:03:07;;;;;;;8.63;5.83;;;;;;;-1.80;100.00;100685.75;4939894;28;20586;-76
2023/01/30 01:05:34;;;;;;;11.17;6.17;;;;;;;-1.80;100.00;100686.63;4947492;28;20224;-77
2023/01/30 01:08:00;;;;;;;10.23;6.23;;;;;;;-1.78;100.00;100671.31;4940989;28;20214;-75
2023/01/30 01:10:28;;;;;;;9.00;5.93;;;;;;;-1.79;100.00;100651.72;4935776;29;20770;-76
2023/01/30 01:12:55;;;;;;;9.70;6.10;;;;;;;-1.79;100.00;100649.16;4945126;28;20215;-77
2023/01/30 01:15:23;;;;;;;9.47;6.27;;;;;;;-1.78;100.00;100653.44;4946933;28;20206;-75
2023/01/30 01:17:51;;;;;;;10.43;6.20;;;;;;;-1.78;100.00;100646.63;4947740;28;20598;-76
2023/01/30 01:20:18;;;;;;;9.90;6.00;;;;;;;-1.78;100.00;100630.44;4951416;28;20230;-76
2023/01/30 01:22:49;;;;;;;10.27;6.03;;;;;;;-1.77;100.00;100624.50;4941445;28;20214;-77
2023/01/30 01:25:18;;;;;;;9.73;5.90;;;;;;;-1.78;100.00;100613.38;4930189;29;20202;-77
2023/01/30 01:27:44;;;;;;;10.13;5.83;;;;;;;-1.76;100.00;100615.97;4945921;28;20195;-76
2023/01/30 01:30:13;;;;;;;10.07;6.23;;;;;;;-1.77;100.00;100607.47;4946962;28;20281;-76
2023/01/30 01:32:40;;;;;;;11.13;6.60;;;;;;;-1.78;100.00;100605.72;4945476;28;20211;-76
2023/01/30 01:35:11;;;;;;;11.57;6.70;;;;;;;-1.76;100.00;100595.53;4946759;28;20226;-76
2023/01/30 01:37:38;;;;;;;11.60;6.53;;;;;;;-1.77;100.00;100584.44;4943978;28;20226;-76
2023/01/30 01:42:50;;;;;;;12.33;6.57;;;;;;;-1.76;100.00;100565.75;4940261;28;20211;-76
2023/01/30 01:45:19;;;;;;;10.53;5.90;;;;;;;-1.78;100.00;100559.69;4929659;29;20217;-77
2023/01/30 01:47:57;;;;;;;11.97;5.87;;;;;;;-1.78;100.00;100540.97;4942870;28;20376;-77
2023/01/30 01:50:29;;;;;;;9.57;6.03;;;;;;;-1.78;100.00;100529.03;4934846;29;20232;-76
2023/01/30 01:52:59;;;;;;;11.60;6.67;;;;;;;-1.81;100.00;100528.09;4943648;28;20217;-76
2023/01/30 01:55:26;;;;;;;10.77;6.40;;;;;;;-1.82;100.00;100511.91;4946803;28;20210;-76
2023/01/30 01:57:57;;;;;;;10.70;6.33;;;;;;;-1.83;100.00;100492.31;4950833;28;20591;-77
2023/01/30 02:00:24;;;;;;;10.57;6.17;;;;;;;-1.83;100.00;100499.97;4946633;28;20509;-75
2023/01/30 02:02:55;;;;;;;9.83;5.70;;;;;;;-1.84;100.00;100511.00;4949227;28;20213;-76
2023/01/30 02:05:24;;;;;;;9.37;5.90;;;;;;;-1.81;100.00;100507.66;4945311;28;20286;-76
2023/01/30 02:07:57;;;;;;;11.13;6.17;;;;;;;-1.80;100.00;100500.03;4951464;28;20207;-77
2023/01/30 02:10:31;;;;;;;10.50;6.30;;;;;;;-1.77;100.00;100471.13;4932909;29;20221;-76
2023/01/30 02:12:57;;;;;;;10.87;5.97;;;;;;;-1.75;100.00;100483.09;4943837;28;20687;-77
2023/01/30 02:15:24;;;;;;;12.23;6.40;;;;;;;-1.75;100.00;100465.19;4929756;29;20591;-76
2023/01/30 02:17:50;;;;;;;8.63;5.73;;;;;;;-1.75;100.00;100454.97;4944687;28;20210;-75
2023/01/30 02:20:27;;;;;;;9.60;5.90;;;;;;;-1.74;100.00;100461.81;4935020;28;20210;-76
2023/01/30 02:23:16;;;;;;;11.33;6.60;;;;;;;-1.73;100.00;100460.97;4945452;28;20209;-76
2023/01/30 02:26:12;;;;;;;11.83;6.50;;;;;;;-1.69;100.00;100458.50;4944569;28;20203;-75
2023/01/30 02:29:01;;;;;;;12.47;6.63;;;;;;;-1.68;100.00;100483.25;4931864;28;20207;-77
2023/01/30 02:31:40;;;;;;;8.03;5.80;;;;;;;-1.68;100.00;100491.75;4929585;29;20219;-76
2023/01/30 02:34:24;;;;;;;11.33;7.20;;;;;;;-1.66;100.00;100479.03;4930522;28;20202;-76
2023/01/30 02:36:59;;;;;;;9.13;5.93;;;;;;;-1.65;100.00;100473.06;4940870;28;20198;-76
2023/01/30 02:39:37;;;;;;;12.77;6.63;;;;;;;-1.64;100.00;100467.13;4944825;28;20208;-76
2023/01/30 02:42:14;;;;;;;13.90;6.97;;;;;;;-1.63;100.00;100453.53;4950067;28;20218;-76
2023/01/30 02:44:50;;;;;;;11.27;6.57;;;;;;;-1.62;100.00;100447.56;4951997;28;20420;-75
2023/01/30 02:47:24;;;;;;;11.20;6.63;;;;;;;-1.61;100.00;100447.59;4953297;28;20209;-77
2023/01/30 02:49:55;;;;;;;10.57;6.30;;;;;;;-1.60;100.00;100426.31;4947802;28;20218;-77
2023/01/30 02:52:23;;;;;;;11.83;6.67;;;;;;;-1.58;100.00;100427.22;4946028;28;20215;-75
2023/01/30 02:54:49;;;;;;;9.53;6.23;;;;;;;-1.58;100.00;100413.56;4947633;28;20221;-76
2023/01/30 02:57:19;;;;;;;12.00;6.67;;;;;;;-1.56;100.00;100399.13;4930980;29;20219;-76
2023/01/30 02:59:55;;;;;;;10.50;6.70;;;;;;;-1.57;100.00;100390.56;4944105;28;20204;-76
2023/01/30 03:02:49;;;;;;;10.40;6.40;;;;;;;-1.55;100.00;100373.56;4929598;29;20258;-76
2023/01/30 03:05:44;;;;;;;12.67;7.23;;;;;;;-1.50;100.00;100357.44;4944162;28;20230;-77
2023/01/30 03:08:20;;;;;;;12.43;7.00;;;;;;;-1.48;100.00;100350.66;4943606;28;20298;-76
2023/01/30 03:10:58;;;;;;;10.10;6.53;;;;;;;-1.48;100.00;100333.63;4931855;28;20706;-76
2023/01/30 03:13:34;;;;;;;12.23;6.70;;;;;;;-1.46;100.00;100326.84;4938912;28;20207;-76
2023/01/30 03:16:07;;;;;;;10.33;5.97;;;;;;;-1.45;100.00;100325.16;4940729;28;20207;-76
2023/01/30 03:18:34;;;;;;;11.20;6.53;;;;;;;-1.45;100.00;100330.28;4932405;28;20223;-76
2023/01/30 03:21:05;;;;;;;9.73;5.73;;;;;;;-1.43;100.00;100315.81;4948587;28;20660;-75
2023/01/30 03:23:31;;;;;;;11.07;5.97;;;;;;;-1.39;100.00;100300.56;4945805;28;20258;-75
2023/01/30 03:25:58;;;;;;;10.33;6.63;;;;;;;-1.38;100.00;100316.75;4941441;28;20203;-75
2023/01/30 03:28:26;;;;;;;12.43;6.40;;;;;;;-1.39;100.00;100297.13;4949698;28;20447;-76
2023/01/30 03:30:53;;;;;;;10.77;6.50;;;;;;;-1.38;100.00;100286.06;4956768;28;20257;-77
2023/01/30 03:33:19;;;;;;;9.57;5.83;;;;;;;-1.37;100.00;100285.25;4960573;28;20639;-77
2023/01/30 03:35:50;;;;;;;10.33;5.63;;;;;;;-1.36;100.00;100304.84;4954478;28;20541;-77
2023/01/30 03:38:17;;;;;;;9.33;6.30;;;;;;;-1.31;100.00;100292.16;4942369;28;20207;-77
2023/01/30 03:40:46;;;;;;;10.77;6.00;;;;;;;-1.31;100.00;100280.22;4962839;28;20301;-78
2023/01/30 03:43:12;;;;;;;10.27;6.60;;;;;;;-1.29;100.00;100267.44;4946389;29;20522;-78
2023/01/30 03:45:38;;;;;;;10.83;6.23;;;;;;;-1.28;100.00;100287.09;4947654;29;20279;-75
2023/01/30 03:48:05;;;;;;;11.23;6.27;;;;;;;-1.26;100.00;100287.97;4946449;28;20451;-76
2023/01/30 03:50:32;;;;;;;10.70;6.30;;;;;;;-1.23;100.00;100281.22;4945534;29;20207;-78
2023/01/30 03:53:01;;;;;;;9.67;5.93;;;;;;;-1.22;100.00;100269.25;4941993;28;20195;-78
2023/01/30 03:55:29;;;;;;;9.20;6.50;;;;;;;-1.19;100.00;100251.41;4947822;29;20203;-78
2023/01/30 03:57:56;;;;;;;8.50;5.70;;;;;;;-1.21;100.00;100255.66;4954244;28;20203;-75
2023/01/30 04:00:24;;;;;;;8.97;5.23;;;;;;;-1.25;100.00;100246.19;4948648;28;20277;-75
2023/01/30 04:02:51;;;;;;;10.47;6.07;;;;;;;-1.29;100.00;100264.88;4945929;28;20289;-76
2023/01/30 04:05:18;;;;;;;8.33;5.50;;;;;;;-1.33;100.00;100239.25;4943025;28;20198;-75
2023/01/30 04:07:50;;;;;;;11.47;6.97;;;;;;;-1.31;100.00;100239.28;4929038;28;20233;-74
2023/01/30 04:10:18;;;;;;;10.40;6.57;;;;;;;-1.32;100.00;100247.78;4949512;28;20230;-75
2023/01/30 04:12:45;;;;;;;11.30;6.77;;;;;;;-1.32;100.00;100245.22;4945578;28;20226;-76
2023/01/30 04:15:12;;;;;;;13.87;6.67;;;;;;;-1.31;100.00;100235.88;4928987;29;20711;-76
2023/01/30 04:17:48;;;;;;;11.43;6.47;;;;;;;-1.31;100.00;100239.28;4925506;28;20709;-76
2023/01/30 04:20:41;;;;;;;10.73;6.50;;;;;;;-1.33;100.00;100223.06;4942333;29;20247;-77
2023/01/30 04:23:07;;;;;;;13.07;7.40;;;;;;;-1.33;100.00;100223.91;4940649;28;20202;-78
2023/01/30 04:25:36;;;;;;;10.53;6.73;;;;;;;-1.34;100.00;100211.97;4942510;28;20648;-76
2023/01/30 04:28:07;;;;;;;11.13;7.13;;;;;;;-1.37;100.00;100221.28;4924989;28;20253;-75
2023/01/30 04:30:36;;;;;;;8.63;5.93;;;;;;;-1.37;100.00;100204.25;4922895;29;20219;-76
2023/01/30 04:33:34;;;;;;;11.30;6.50;;;;;;;-1.37;100.00;100190.59;4934390;28;20604;-76
2023/01/30 04:36:04;;;;;;;10.40;6.13;;;;;;;-1.39;100.00;100184.56;4941059;28;20574;-75
2023/01/30 04:38:32;;;;;;;9.87;6.53;;;;;;;-1.40;100.00;100180.31;4945382;28;20579;-76
2023/01/30 04:41:00;;;;;;;11.07;6.60;;;;;;;-1.40;100.00;100177.75;4940029;28;20625;-76
2023/01/30 04:43:30;;;;;;;14.07;6.67;;;;;;;-1.38;100.00;100176.09;4936430;28;20203;-76
2023/01/30 04:46:18;;;;;;;10.40;6.83;;;;;;;-1.35;100.00;100174.44;4947519;28;20230;-76
2023/01/30 04:48:45;;;;;;;12.40;7.23;;;;;;;-1.34;100.00;100157.38;4939943;28;20784;-76
2023/01/30 04:51:11;;;;;;;10.60;6.70;;;;;;;-1.31;100.00;100159.97;4938564;28;20234;-76
2023/01/30 04:53:38;;;;;;;13.10;7.07;;;;;;;-1.28;100.00;100144.69;4940743;28;20199;-76
2023/01/30 04:56:07;;;;;;;16.17;7.23;;;;;;;-1.22;100.00;100146.47;4928026;28;20592;-75
2023/01/30 04:58:34;;;;;;;12.80;6.90;;;;;;;-1.20;100.00;100137.97;4932346;29;20218;-75
2023/01/30 05:01:13;;;;;;;12.20;7.07;;;;;;;-1.17;100.00;100122.66;4928791;28;20657;-75
2023/01/30 05:03:40;;;;;;;10.47;6.93;;;;;;;-1.10;100.00;100120.19;4939663;28;20203;-76
2023/01/30 05:06:07;;;;;;;11.00;6.33;;;;;;;-1.06;100.00;100116.84;4945415;28;20956;-76
2023/01/30 05:08:34;;;;;;;12.73;6.50;;;;;;;-1.04;100.00;100117.69;4947691;28;20559;-76
2023/01/30 05:11:00;;;;;;;13.10;7.20;;;;;;;-1.00;100.00;100124.59;4939871;28;20765;-76
2023/01/30 05:13:29;;;;;;;12.70;7.40;;;;;;;-0.97;100.00;100116.94;4945176;28;20230;-76
2023/01/30 05:15:55;;;;;;;10.80;6.03;;;;;;;-0.92;100.00;100117.88;4941252;28;20230;-75
2023/01/30 05:18:21;;;;;;;12.40;7.27;;;;;;;-0.88;100.00;100103.41;4941366;28;20289;-76
2023/01/30 05:20:48;;;;;;;12.50;7.30;;;;;;;-0.81;100.00;100110.31;4941057;28;20600;-76
2023/01/30 05:23:14;;;;;;;14.33;7.63;;;;;;;-0.81;100.00;100092.38;4945859;28;20214;-77
2023/01/30 05:25:40;;;;;;;14.13;7.33;;;;;;;-0.82;100.00;100083.00;4945052;28;20531;-76
2023/01/30 05:28:07;;;;;;;12.07;6.83;;;;;;;-0.80;100.00;100084.72;4942392;28;20218;-75
2023/01/30 05:30:35;;;;;;;14.33;7.27;;;;;;;-0.78;100.00;100079.63;4929093;29;20247;-76
2023/01/30 05:33:02;;;;;;;11.73;6.67;;;;;;;-0.77;100.00;100078.81;4945954;28;20647;-75
2023/01/30 05:35:29;;;;;;;12.00;6.77;;;;;;;-0.74;100.00;100068.56;4942499;28;20286;-76
2023/01/30 05:37:55;;;;;;;10.53;7.43;;;;;;;-0.73;100.00;100077.13;4939191;28;20233;-74
2023/01/30 05:40:22;;;;;;;10.80;5.97;;;;;;;-0.71;100.00;100072.88;4942554;28;20229;-76
2023/01/30 05:42:48;;;;;;;11.47;6.60;;;;;;;-0.68;100.00;100062.69;4938677;28;20214;-76
2023/01/30 05:45:14;;;;;;;11.33;6.80;;;;;;;-0.67;100.00;100056.69;4939885;28;20204;-76
2023/01/30 05:47:42;;;;;;;11.93;7.27;;;;;;;-0.66;100.00;100043.06;4941823;28;20210;-76
2023/01/30 05:50:10;;;;;;;12.77;7.40;;;;;;;-0.64;100.00;100049.06;4946724;28;20214;-76
2023/01/30 05:52:37;;;;;;;15.13;7.93;;;;;;;-0.65;100.00;100040.53;4942728;28;20244;-75
2023/01/30 05:55:03;;;;;;;12.00;7.13;;;;;;;-0.62;100.00;100042.25;4937016;28;20225;-77
2023/01/30 05:57:30;;;;;;;10.57;6.63;;;;;;;-0.61;100.00;100026.06;4940004;28;20978;-74
2023/01/30 05:59:56;;;;;;;11.87;6.27;;;;;;;-0.59;100.00;100029.47;4942715;28;20205;-75
2023/01/30 06:02:22;;;;;;;11.47;7.00;;;;;;;-0.57;100.00;100031.19;4945235;28;20218;-76
2023/01/30 06:04:50;;;;;;;10.70;6.43;;;;;;;-0.53;100.00;100033.81;4943744;28;20202;-76
2023/01/30 06:07:16;;;;;;;11.40;6.97;;;;;;;-0.53;100.00;100036.34;4946918;28;20209;-76
2023/01/30 06:09:43;;;;;;;12.07;7.43;;;;;;;-0.51;100.00;100040.66;4943853;28;20198;-77
2023/01/30 06:12:09;;;;;;;13.40;7.33;;;;;;;-0.51;100.00;100035.53;4944294;28;20235;-76
2023/01/30 06:14:35;;;;;;;11.30;6.60;;;;;;;-0.51;100.00;100030.44;4940619;28;20207;-77
2023/01/30 06:17:02;;;;;;;10.27;6.57;;;;;;;-0.48;100.00;100033.00;4934380;28;20205;-76
2023/01/30 06:19:28;;;;;;;12.40;6.83;;;;;;;-0.46;100.00;100035.56;4941169;28;20210;-76
2023/01/30 06:21:56;;;;;;;12.70;6.77;;;;;;;-0.45;100.00;100030.47;4975625;23;20225;-73
2023/01/30 06:24:22;;;;;;;14.57;6.63;;;;;;;-0.45;100.00;100027.91;4993877;28;20648;-73
2023/01/30 06:26:50;;;;;;;14.50;7.53;;;;;;;-0.44;100.00;100018.50;4996708;28;20208;-74
2023/01/30 06:29:16;;;;;;;11.37;6.93;;;;;;;-0.45;100.00;100016.81;5001710;28;20201;-73
2023/01/30 06:31:42;;;;;;;10.20;6.30;;;;;;;-0.45;100.00;100020.22;4995865;28;20308;-73
2023/01/30 06:34:10;;;;;;;12.97;7.20;;;;;;;-0.46;100.00;100017.63;4996406;28;20200;-74
2023/01/30 06:36:37;;;;;;;13.53;7.77;;;;;;;-0.47;100.00;100013.38;5001961;28;20196;-73
2023/01/30 06:39:06;;;;;;;12.57;7.70;;;;;;;-0.47;100.00;100013.38;4998963;28;20197;-73
2023/01/30 06:41:32;;;;;;;11.97;6.87;;;;;;;-0.48;100.00;100009.94;4985941;28;20216;-73
2023/01/30 06:43:59;;;;;;;13.33;7.37;;;;;;;-0.47;100.00;100005.69;5002210;28;20184;-74
2023/01/30 06:46:25;;;;;;;10.97;6.63;;;;;;;-0.47;100.00;100016.78;5002422;28;20211;-73
2023/01/30 06:48:51;;;;;;;11.03;6.57;;;;;;;-0.47;100.00;99991.19;5000837;28;20201;-73
2023/01/30 06:51:18;;;;;;;11.43;6.90;;;;;;;-0.46;100.00;100012.50;4999735;28;20451;-72
2023/01/30 06:53:44;;;;;;;12.10;6.87;;;;;;;-0.46;100.00;100017.63;4999150;28;20358;-72
2023/01/30 06:56:12;;;;;;;10.77;6.43;;;;;;;-0.45;100.00;99997.16;4997436;28;20203;-73
2023/01/30 06:58:38;;;;;;;11.37;6.57;;;;;;;-0.43;100.00;100005.72;4998909;28;20203;-72
2023/01/30 07:01:05;;;;;;;14.27;7.27;;;;;;;-0.43;100.00;100008.28;4997478;28;20213;-71
2023/01/30 07:03:31;;;;;;;11.60;6.83;;;;;;;-0.45;100.00;100009.97;4994285;28;20217;-72
2023/01/30 07:05:57;;;;;;;12.27;7.30;;;;;;;-0.46;100.00;99999.72;4997732;28;20209;-73
2023/01/30 07:08:24;;;;;;;10.23;6.63;;;;;;;-0.49;100.00;99984.31;4996710;28;20217;-73
2023/01/30 07:10:50;;;;;;;12.60;6.47;;;;;;;-0.50;100.00;99982.63;4998854;28;20312;-73
2023/01/30 07:13:18;;;;;;;11.77;6.90;;;;;;;-0.50;100.00;99988.59;4977503;28;20199;-73
2023/01/30 07:15:45;;;;;;;13.00;6.87;;;;;;;-0.48;100.00;99991.16;4998777;28;20749;-72
2023/01/30 07:18:11;;;;;;;11.23;7.07;;;;;;;-0.48;100.00;99976.66;5003375;28;20193;-71
2023/01/30 07:20:38;;;;;;;13.23;7.00;;;;;;;-0.51;100.00;99976.63;4998571;28;20736;-72
2023/01/30 07:23:05;;;;;;;11.27;6.23;;;;;;;-0.47;100.00;99992.88;4999437;28;20237;-72
2023/01/30 07:25:31;;;;;;;10.47;6.77;;;;;;;-0.46;100.00;99992.03;4994249;28;20225;-73
2023/01/30 07:27:59;;;;;;;12.33;7.37;;;;;;;-0.44;100.00;99987.78;4994405;28;20197;-73
2023/01/30 07:30:28;;;;;;;15.03;7.10;;;;;;;-0.45;100.00;99979.25;4997440;28;20207;-72
2023/01/30 07:32:57;;;;;;;13.80;6.90;;;;;;;-0.45;100.00;99979.25;5001625;28;20240;-73
2023/01/30 07:35:25;;;;;;;11.70;6.57;;;;;;;-0.43;100.00;99974.13;5002889;28;20319;-73
2023/01/30 07:37:52;;;;;;;13.10;7.27;;;;;;;-0.42;100.00;99974.16;5004480;28;20215;-72
2023/01/30 07:40:19;;;;;;;10.03;6.10;;;;;;;-0.42;100.00;99978.41;5006628;28;20204;-72
2023/01/30 07:42:55;;;;;;;12.27;7.03;;;;;;;-0.42;100.00;99976.72;5005885;28;20596;-72
2023/01/30 07:45:22;;;;;;;11.07;6.50;;;;;;;-0.42;100.00;99976.72;5002189;28;20208;-73
2023/01/30 07:47:49;;;;;;;9.83;6.30;;;;;;;-0.42;100.00;99978.41;5002329;28;20669;-72
2023/01/30 07:50:16;;;;;;;12.17;6.63;;;;;;;-0.44;100.00;99973.28;5001794;28;20200;-73
2023/01/30 07:52:43;;;;;;;10.93;6.67;;;;;;;-0.45;100.00;99975.84;5004327;28;20307;-73
2023/01/30 07:55:10;;;;;;;9.90;5.90;;;;;;;-0.48;100.00;99980.91;5005386;28;20196;-72
2023/01/30 07:57:36;;;;;;;17.30;9.40;;;;;;;-0.51;100.00;99978.31;5004248;28;20197;-73
2023/01/30 08:00:04;;;;;;;10.40;6.40;;;;;;;-0.52;100.00;99969.78;5003561;28;20208;-73
2023/01/30 08:02:35;;;;;;;11.80;6.70;;;;;;;-0.53;100.00;99988.56;5004593;28;20236;-73
2023/01/30 08:05:02;;;;;;;10.30;6.77;;;;;;;-0.51;100.00;99970.63;4983105;28;20571;-72
2023/01/30 08:07:29;;;;;;;10.40;6.30;;;;;;;-0.52;100.00;99961.25;5001292;28;20541;-72
2023/01/30 08:09:55;;;;;;;9.97;6.10;;;;;;;-0.50;100.00;99959.56;5001473;28;20211;-72
2023/01/30 08:12:21;;;;;;;11.23;6.77;;;;;;;-0.47;100.00;99957.88;5000705;28;20239;-73
2023/01/30 08:14:48;;;;;;;11.70;7.77;;;;;;;-0.44;100.00;99962.16;5004115;28;20217;-73
2023/01/30 08:17:15;;;;;;;11.47;6.53;;;;;;;-0.40;100.00;99946.84;4998991;28;20193;-73
2023/01/30 08:19:42;;;;;;;11.80;7.10;;;;;;;-0.36;100.00;99960.53;4981288;28;20216;-73
2023/01/30 08:22:09;;;;;;;10.93;6.13;;;;;;;-0.35;100.00;99966.50;4997451;28;20629;-72
2023/01/30 08:24:37;;;;;;;13.10;6.53;;;;;;;-0.33;100.00;99965.69;4996187;28;20200;-71
2023/01/30 08:27:03;;;;;;;8.23;6.00;;;;;;;-0.29;100.00;99956.31;5005338;28;20792;-72
2023/01/30 08:29:30;;;;;;;12.47;6.57;;;;;;;-0.27;100.00;99952.91;5001097;28;20435;-72
2023/01/30 08:31:57;;;;;;;13.00;7.00;;;;;;;-0.23;100.00;99971.72;5002672;28;20208;-72
2023/01/30 08:34:23;;;;;;;9.63;6.70;;;;;;;-0.21;100.00;99957.25;5000199;28;20235;-72
2023/01/30 08:36:50;;;;;;;11.60;7.33;;;;;;;-0.15;100.00;99964.09;5001940;28;20212;-72
2023/01/30 08:39:17;;;;;;;9.00;6.23;;;;;;;-0.12;100.00;99954.72;5006621;28;20207;-72
2023/01/30 08:41:44;;;;;;;11.67;7.93;;;;;;;-0.04;100.00;99936.81;4999792;28;20690;-72
2023/01/30 08:44:11;;;;;;;13.33;6.13;;;;;;;0.03;100.00;99945.41;4986335;28;20213;-72
2023/01/30 08:46:37;;;;;;;9.13;6.07;;;;;;;0.10;100.00;99942.03;5003042;28;20203;-73
2023/01/30 08:49:04;;;;;;;11.80;7.17;;;;;;;0.13;100.00;99939.50;5002574;28;20671;-73
2023/01/30 08:51:31;;;;;;;10.20;6.17;;;;;;;0.18;100.00;99940.38;5001422;28;20740;-73
2023/01/30 08:53:57;;;;;;;9.57;5.67;;;;;;;0.24;100.00;99914.75;4987729;28;20210;-73
2023/01/30 08:56:25;;;;;;;10.17;6.37;;;;;;;0.28;100.00;99910.50;5003342;28;20211;-73
2023/01/30 08:58:51;;;;;;;12.17;7.27;;;;;;;0.33;100.00;99922.47;4996765;28;20205;-73
2023/01/30 09:01:18;;;;;;;11.60;6.60;;;;;;;0.37;100.00;99918.25;4979270;28;20311;-72
2023/01/30 09:03:44;;;;;;;11.87;7.20;;;;;;;0.43;100.00;99910.56;4987038;28;20195;-73
2023/01/30 09:06:10;;;;;;;10.87;7.00;;;;;;;0.54;100.00;99918.28;5006234;28;20978;-73
2023/01/30 09:08:37;;;;;;;11.33;6.90;;;;;;;0.63;100.00;99915.75;5007227;28;20689;-72
2023/01/30 09:11:05;;;;;;;12.90;7.70;;;;;;;0.80;100.00;99907.25;5002231;28;20653;-73
2023/01/30 09:13:34;;;;;;;13.03;7.23;;;;;;;0.89;100.00;99904.72;5003688;28;20617;-73
2023/01/30 09:16:01;;;;;;;12.00;6.80;;;;;;;0.92;100.00;99897.88;5002390;28;20664;-73
2023/01/30 09:18:28;;;;;;;11.97;6.60;;;;;;;1.02;100.00;99900.44;4998353;28;20272;-73
2023/01/30 09:21:02;;;;;;;16.60;7.43;;;;;;;1.10;100.00;99901.31;5004688;28;20596;-73
2023/01/30 09:23:28;;;;;;;14.70;6.93;;;;;;;1.17;100.00;99905.59;5005072;28;20198;-73
2023/01/30 09:25:55;;;;;;;13.23;6.67;;;;;;;1.20;100.00;99905.59;5001982;28;20681;-72
2023/01/30 09:28:21;;;;;;;11.90;7.07;;;;;;;1.24;100.00;99911.59;5003676;28;20266;-73
2023/01/30 09:30:49;;;;;;;11.77;6.93;;;;;;;1.38;100.00;99899.59;5004857;28;20554;-73
2023/01/30 09:33:19;;;;;;;11.73;6.97;;;;;;;1.57;100.00;99903.03;5000821;28;20719;-73
2023/01/30 09:35:47;;;;;;;11.97;7.27;;;;;;;1.69;100.00;99899.59;5000836;28;20205;-73
2023/01/30 09:38:13;;;;;;;11.13;6.57;;;;;;;1.74;100.00;99892.69;5000058;28;20201;-73
2023/01/30 09:40:48;;;;;;;12.40;6.23;;;;;;;1.63;100.00;99894.44;5005085;28;20196;-73
2023/01/30 09:43:26;;;;;;;10.90;6.20;;;;;;;1.56;100.00;99898.72;5004320;28;20212;-73
2023/01/30 09:46:08;;;;;;;10.97;5.73;;;;;;;1.55;100.00;99902.19;5003732;28;20557;-73
2023/01/30 09:48:38;;;;;;;10.87;5.60;;;;;;;1.56;100.00;99905.59;5004641;28;20208;-73
2023/01/30 09:51:30;;;;;;;7.50;4.83;;;;;;;1.54;100.00;99885.03;5001919;28;20687;-73
2023/01/30 09:54:05;;;;;;;8.20;4.70;;;;;;;1.56;100.00;99892.75;4998449;28;20308;-73
2023/01/30 09:56:32;;;;;;;6.03;4.30;;;;;;;1.60;100.00;99897.91;4999722;28;20209;-72
2023/01/30 09:59:01;;;;;;;6.83;4.57;;;;;;;1.73;100.00;99906.44;5005471;28;20200;-73
2023/01/30 10:01:39;;;;;;;10.50;4.57;;;;;;;1.83;100.00;99899.53;4986112;28;20220;-73
2023/01/30 10:04:14;;;;;;;8.03;5.17;;;;;;;1.85;100.00;99897.84;5004101;28;20200;-73
2023/01/30 10:06:51;;;;;;;6.73;4.47;;;;;;;1.83;100.00;99897.84;5002246;28;20218;-73
2023/01/30 10:09:27;;;;;;;5.20;4.07;;;;;;;1.79;100.00;99910.69;5001485;28;20283;-72
2023/01/30 10:12:07;;;;;;;7.80;5.80;;;;;;;1.79;100.00;99903.84;4999284;28;20212;-73
2023/01/30 10:14:46;;;;;;;6.20;4.30;;;;;;;1.77;100.00;99905.56;5000330;28;20196;-72
2023/01/30 10:17:28;;;;;;;5.90;3.93;;;;;;;1.75;100.00;99906.44;5003493;28;20212;-73
2023/01/30 10:20:20;;;;;;;6.30;3.50;;;;;;;1.74;100.00;99908.13;5003533;28;20203;-72
2023/01/30 10:23:01;;;;;;;4.70;2.97;;;;;;;1.73;100.00;99906.44;5000850;28;20225;-73
2023/01/30 10:25:32;;;;;;;7.10;4.10;;;;;;;1.74;100.00;99910.69;5000023;28;20758;-72
2023/01/30 10:28:04;;;;;;;5.90;2.93;;;;;;;1.76;100.00;99900.41;4998925;28;20199;-73
2023/01/30 10:30:31;;;;;;;5.63;2.70;;;;;;;1.76;100.00;99921.84;5001283;28;20204;-73
2023/01/30 10:33:04;;;;;;;4.03;2.93;;;;;;;1.77;100.00;99928.69;5000707;28;20223;-73
2023/01/30 10:35:34;;;;;;;4.93;2.67;;;;;;;1.77;100.00;99925.28;4997233;28;20209;-73
2023/01/30 10:38:07;;;;;;;3.90;2.60;;;;;;;1.67;100.00;99929.56;4999226;28;20198;-74
2023/01/30 10:40:40;;;;;;;4.97;2.80;;;;;;;1.57;100.00;99931.28;4997198;28;20288;-74
2023/01/30 10:43:16;;;;;;;5.73;3.10;;;;;;;1.50;100.00;99909.03;4980583;28;20584;-74
2023/01/30 10:45:51;;;;;;;4.47;2.67;;;;;;;1.49;100.00;99918.44;4997995;28;20232;-74
2023/01/30 10:48:32;;;;;;;4.63;2.70;;;;;;;1.47;100.00;99909.03;4996670;28;20209;-74
2023/01/30 10:51:03;;;;;;;4.87;2.77;;;;;;;1.45;100.00;99919.31;4999561;28;20276;-74
2023/01/30 10:53:36;;;;;;;4.93;3.33;;;;;;;1.42;100.00;99918.44;5002768;28;20291;-74
2023/01/30 10:56:08;;;;;;;5.83;3.23;;;;;;;1.41;100.00;99921.88;5000915;28;20219;-74
2023/01/30 10:58:43;;;;;;;3.87;2.30;;;;;;;1.39;100.00;99909.03;5003141;28;20193;-74
2023/01/30 11:01:20;;;;;;;4.23;2.50;;;;;;;1.45;100.00;99903.03;5001932;28;20628;-73
2023/01/30 11:03:52;;;;;;;3.43;2.67;;;;;;;1.55;100.00;99898.72;5004520;28;20447;-74
2023/01/30 11:06:23;;;;;;;5.73;2.73;;;;;;;1.73;100.00;99885.88;5002573;28;20197;-74
2023/01/30 11:08:50;;;;;;;4.70;2.67;;;;;;;1.80;100.00;99889.28;5004212;28;20294;-73
2023/01/30 11:11:25;;;;;;;4.10;2.87;;;;;;;1.81;100.00;99893.56;5007466;28;20222;-73
2023/01/30 11:14:01;;;;;;;3.53;2.27;;;;;;;1.79;100.00;99888.41;5006838;28;20224;-73
2023/01/30 11:16:27;;;;;;;3.53;2.23;;;;;;;1.81;100.00;99893.56;5008955;28;20203;-73
2023/01/30 11:18:57;;;;;;;2.33;1.80;;;;;;;1.86;100.00;99896.97;5007317;28;20189;-72
2023/01/30 11:21:27;;;;;;;4.03;2.57;;;;;;;1.90;100.00;99888.41;5004666;28;20228;-72
2023/01/30 11:23:54;;;;;;;2.87;2.30;;;;;;;1.93;100.00;99877.25;5005201;28;20201;-73
2023/01/30 11:26:28;;;;;;;3.63;2.20;;;;;;;1.97;100.00;99881.50;4989756;28;20788;-73
2023/01/30 11:28:55;;;;;;;2.93;2.40;;;;;;;2.02;100.00;99872.06;4985555;28;20219;-73
2023/01/30 11:31:25;;;;;;;2.53;2.03;;;;;;;2.04;100.00;99878.06;5009663;28;20278;-73
2023/01/30 11:34:01;;;;;;;4.40;2.30;;;;;;;2.01;100.00;99883.25;5005595;28;20210;-73
2023/01/30 11:36:30;;;;;;;3.93;2.10;;;;;;;1.94;100.00;99884.13;5005905;28;20244;-73